Time;durP1;ratioP1;P1;durP2;ratioP2;P2;SDS_P1;SDS_P2;PMS_P1;PMS_P2;Temp;Humidity;BMP_temperature;BMP_pressure;BME280_temperature;BME280_humidity;BME280_pressure;Samples;Min_cycle;Max_cycle;Signal;HPM_P1;HPM_P2
2021/08/08 00:00:26;;;;;;;1.50;0.60;;;19.90;99.90;;;;;;5035269;28;20625;-81
2021/08/08 00:02:52;;;;;;;1.03;0.50;;;19.90;99.90;;;;;;5052928;28;20674;-81
2021/08/08 00:05:18;;;;;;;1.30;0.67;;;19.90;99.90;;;;;;5051867;28;20250;-82
2021/08/08 00:07:48;;;;;;;1.20;0.80;;;19.90;99.90;;;;;;5058277;28;20169;-81
2021/08/08 00:10:14;;;;;;;1.77;0.60;;;19.90;99.90;;;;;;5050964;28;20666;-81
2021/08/08 00:12:41;;;;;;;1.80;0.60;;;19.80;99.90;;;;;;5018171;28;21233;-82
2021/08/08 00:15:11;;;;;;;1.60;0.50;;;19.90;99.90;;;;;;5052253;28;20671;-81
2021/08/08 00:17:37;;;;;;;2.20;0.50;;;19.80;99.90;;;;;;5035368;28;20604;-81
2021/08/08 00:20:05;;;;;;;1.73;0.50;;;19.80;99.90;;;;;;5063282;28;20606;-81
2021/08/08 00:22:31;;;;;;;1.13;0.57;;;19.90;99.90;;;;;;5058225;28;20165;-81
2021/08/08 00:24:56;;;;;;;2.00;0.60;;;19.80;99.90;;;;;;5038948;28;20976;-81
2021/08/08 00:27:22;;;;;;;2.63;1.00;;;19.80;99.90;;;;;;5033321;28;20575;-81
2021/08/08 00:29:48;;;;;;;2.57;0.70;;;19.90;99.90;;;;;;5052420;28;20196;-81
2021/08/08 00:32:14;;;;;;;1.60;0.50;;;19.80;99.90;;;;;;5036779;28;20653;-81
2021/08/08 00:34:42;;;;;;;1.40;0.60;;;19.90;99.90;;;;;;5035543;28;20177;-81
2021/08/08 00:37:08;;;;;;;4.80;0.60;;;19.80;99.90;;;;;;5036106;28;21280;-82
2021/08/08 00:39:35;;;;;;;1.53;0.60;;;19.80;99.90;;;;;;5023026;28;20627;-82
2021/08/08 00:42:02;;;;;;;1.20;0.67;;;19.80;99.90;;;;;;5021267;28;20587;-82
2021/08/08 00:44:30;;;;;;;1.20;0.60;;;19.80;99.90;;;;;;5039336;28;20575;-82
2021/08/08 00:46:57;;;;;;;1.30;0.50;;;19.80;99.90;;;;;;5038155;28;20678;-83
2021/08/08 00:49:25;;;;;;;2.13;0.67;;;19.80;99.90;;;;;;5036960;28;20701;-83
2021/08/08 00:51:52;;;;;;;1.50;0.60;;;19.90;99.90;;;;;;5038739;28;20575;-82
2021/08/08 00:54:21;;;;;;;1.40;0.70;;;19.90;99.90;;;;;;5019813;28;20602;-82
2021/08/08 00:56:47;;;;;;;1.67;0.60;;;19.90;99.90;;;;;;5020885;28;20623;-81
2021/08/08 00:59:13;;;;;;;1.83;0.70;;;19.90;99.90;;;;;;5037824;28;20610;-81
2021/08/08 01:01:47;;;;;;;1.13;0.50;;;20.00;99.90;;;;;;5038599;28;20567;-83
2021/08/08 01:04:22;;;;;;;1.50;0.70;;;20.00;99.90;;;;;;5019599;28;20572;-83
2021/08/08 01:06:57;;;;;;;1.20;0.60;;;20.00;99.90;;;;;;5037871;28;21186;-83
2021/08/08 01:09:31;;;;;;;1.47;0.70;;;20.00;99.90;;;;;;5035451;28;21129;-83
2021/08/08 01:11:59;;;;;;;1.77;0.70;;;20.00;99.90;;;;;;5021443;28;20932;-84
2021/08/08 01:14:26;;;;;;;2.40;0.93;;;20.00;99.90;;;;;;5036888;28;20583;-82
2021/08/08 01:16:53;;;;;;;1.73;0.70;;;20.10;99.90;;;;;;5038779;28;20622;-83
2021/08/08 01:19:29;;;;;;;2.57;0.70;;;20.10;99.90;;;;;;5020444;28;21299;-82
2021/08/08 01:21:56;;;;;;;2.13;0.80;;;20.10;99.90;;;;;;5040371;28;20602;-83
2021/08/08 01:24:22;;;;;;;1.20;0.70;;;20.10;99.90;;;;;;5053365;28;20653;-82
2021/08/08 01:26:49;;;;;;;1.37;0.70;;;20.10;99.90;;;;;;5037000;28;20729;-83
2021/08/08 01:29:18;;;;;;;3.17;0.80;;;20.20;99.90;;;;;;5020211;28;20709;-83
2021/08/08 01:31:54;;;;;;;1.40;0.70;;;20.20;99.90;;;;;;5021417;28;20587;-83
2021/08/08 01:34:26;;;;;;;2.63;0.87;;;20.20;99.90;;;;;;5035973;28;20595;-82
2021/08/08 01:36:52;;;;;;;1.50;0.60;;;20.20;99.90;;;;;;5036785;28;20622;-82
2021/08/08 01:39:22;;;;;;;6.93;1.07;;;20.20;99.90;;;;;;5020007;28;20602;-82
2021/08/08 01:41:57;;;;;;;3.40;0.70;;;20.20;99.90;;;;;;5036509;28;20579;-82
2021/08/08 01:44:31;;;;;;;1.77;0.70;;;20.20;99.90;;;;;;5034778;28;20567;-83
2021/08/08 01:46:59;;;;;;;1.60;0.70;;;20.20;99.90;;;;;;5020603;28;20584;-82
2021/08/08 01:49:28;;;;;;;1.87;0.80;;;20.20;99.90;;;;;;5036164;28;20653;-82
2021/08/08 01:51:57;;;;;;;2.10;1.13;;;20.20;99.90;;;;;;5020397;28;20579;-83
2021/08/08 01:54:28;;;;;;;4.27;0.77;;;20.20;99.90;;;;;;5035068;28;20583;-83
2021/08/08 01:56:58;;;;;;;2.97;1.57;;;20.20;99.90;;;;;;5036514;28;20627;-82
2021/08/08 01:59:26;;;;;;;2.00;0.83;;;20.30;99.90;;;;;;5036962;28;20604;-83
2021/08/08 02:01:54;;;;;;;3.23;0.80;;;20.30;99.90;;;;;;5036743;28;20629;-84
2021/08/08 02:04:25;;;;;;;2.43;0.77;;;20.30;99.90;;;;;;5034802;28;20572;-83
2021/08/08 02:06:59;;;;;;;3.83;0.80;;;20.20;99.90;;;;;;5038968;28;20647;-83
2021/08/08 02:09:26;;;;;;;4.50;0.80;;;20.30;99.90;;;;;;5034617;28;20608;-83
2021/08/08 02:11:52;;;;;;;1.83;0.80;;;20.20;99.90;;;;;;5053891;28;21133;-82
2021/08/08 02:14:21;;;;;;;1.90;0.70;;;20.20;99.90;;;;;;5017766;28;20575;-83
2021/08/08 02:16:50;;;;;;;2.67;1.60;;;20.20;99.90;;;;;;5035704;28;21011;-82
2021/08/08 02:19:19;;;;;;;3.23;0.67;;;20.20;99.90;;;;;;5033496;28;20623;-83
2021/08/08 02:21:50;;;;;;;1.70;0.67;;;20.10;99.90;;;;;;5020000;28;20659;-82
2021/08/08 02:24:19;;;;;;;2.60;0.80;;;20.10;99.90;;;;;;5034502;28;20579;-83
2021/08/08 02:26:56;;;;;;;4.80;0.90;;;20.00;99.90;;;;;;5035762;28;20966;-82
2021/08/08 02:29:22;;;;;;;3.50;1.20;;;20.00;99.90;;;;;;5026987;28;20620;-82
2021/08/08 02:31:48;;;;;;;3.10;1.47;;;20.00;99.90;;;;;;5001968;28;20591;-82
2021/08/08 02:34:23;;;;;;;2.63;0.83;;;19.90;99.90;;;;;;5026206;28;20184;-82
2021/08/08 02:36:49;;;;;;;2.33;1.00;;;19.90;99.90;;;;;;5025960;28;20595;-82
2021/08/08 02:39:15;;;;;;;3.23;1.03;;;19.90;99.90;;;;;;5029955;28;20195;-83
2021/08/08 02:41:41;;;;;;;1.90;0.80;;;19.80;99.90;;;;;;5028491;28;20646;-83
2021/08/08 02:44:07;;;;;;;1.90;0.90;;;19.80;99.90;;;;;;5048415;28;20235;-82
2021/08/08 02:46:35;;;;;;;5.97;1.10;;;19.80;99.90;;;;;;5034427;28;20942;-81
2021/08/08 02:49:01;;;;;;;1.67;0.80;;;19.70;99.90;;;;;;5024659;28;20619;-82
2021/08/08 02:51:30;;;;;;;3.70;0.90;;;19.70;99.90;;;;;;5023185;28;20596;-82
2021/08/08 02:53:57;;;;;;;3.20;0.80;;;19.70;99.90;;;;;;5033954;28;20591;-81
2021/08/08 02:56:23;;;;;;;2.37;0.80;;;19.70;99.90;;;;;;5038361;28;20588;-82
2021/08/08 02:58:49;;;;;;;3.03;0.83;;;19.70;99.90;;;;;;5028563;28;20651;-82
2021/08/08 03:01:15;;;;;;;2.17;0.90;;;19.60;99.90;;;;;;5038867;28;20584;-82
2021/08/08 03:03:41;;;;;;;2.83;0.90;;;19.60;99.90;;;;;;5033158;28;20184;-82
2021/08/08 03:06:12;;;;;;;2.27;1.03;;;19.50;99.90;;;;;;5038400;28;20622;-82
2021/08/08 03:08:42;;;;;;;5.50;0.97;;;19.50;99.90;;;;;;5046852;28;21035;-82
2021/08/08 03:11:09;;;;;;;3.80;0.87;;;19.50;99.90;;;;;;5038270;28;20592;-82
2021/08/08 03:13:35;;;;;;;2.00;0.90;;;19.40;99.90;;;;;;5036593;28;20611;-82
2021/08/08 03:16:01;;;;;;;4.20;0.93;;;19.40;99.90;;;;;;5034451;28;21106;-82
2021/08/08 03:18:27;;;;;;;2.97;0.93;;;19.40;99.90;;;;;;5033731;28;20643;-81
2021/08/08 03:20:53;;;;;;;2.33;1.03;;;19.40;99.90;;;;;;5035117;28;20161;-81
2021/08/08 03:23:18;;;;;;;2.80;0.80;;;19.30;99.90;;;;;;5000939;28;20267;-81
2021/08/08 03:25:46;;;;;;;2.70;0.70;;;19.40;99.90;;;;;;5034213;28;20836;-82
2021/08/08 03:28:11;;;;;;;4.30;0.97;;;19.30;99.90;;;;;;5017058;28;20607;-81
2021/08/08 03:30:38;;;;;;;3.90;1.00;;;19.30;99.90;;;;;;5034894;28;20687;-81
2021/08/08 03:33:04;;;;;;;2.43;0.80;;;19.30;99.90;;;;;;5033554;28;20571;-81
2021/08/08 03:35:30;;;;;;;3.60;0.97;;;19.20;99.90;;;;;;5018018;28;20979;-81
2021/08/08 03:37:56;;;;;;;4.93;0.90;;;19.20;99.90;;;;;;5016062;28;20196;-81
2021/08/08 03:40:23;;;;;;;1.90;0.90;;;19.20;99.90;;;;;;5020369;28;20563;-83
2021/08/08 03:42:49;;;;;;;2.03;0.90;;;19.20;99.90;;;;;;5051770;28;20609;-82
2021/08/08 03:45:17;;;;;;;4.90;1.13;;;19.20;99.90;;;;;;5037305;28;20588;-82
2021/08/08 03:47:43;;;;;;;3.67;1.20;;;19.20;99.90;;;;;;5044398;28;20575;-83
2021/08/08 03:50:10;;;;;;;3.13;0.90;;;19.20;99.90;;;;;;5029750;28;20587;-83
2021/08/08 03:52:37;;;;;;;3.43;1.10;;;19.10;99.90;;;;;;5044221;28;20594;-83
2021/08/08 03:55:04;;;;;;;3.50;1.00;;;19.10;99.90;;;;;;5044615;28;21013;-83
2021/08/08 03:57:30;;;;;;;2.63;0.80;;;19.10;99.90;;;;;;5042410;28;20619;-82
2021/08/08 04:00:03;;;;;;;6.60;0.90;;;19.10;99.90;;;;;;5034448;28;20670;-81
2021/08/08 04:02:30;;;;;;;3.17;1.00;;;19.10;99.90;;;;;;5034882;28;20599;-81
2021/08/08 04:04:56;;;;;;;2.07;0.80;;;19.00;99.90;;;;;;5021851;28;20559;-82
2021/08/08 04:07:21;;;;;;;4.43;0.97;;;19.00;99.90;;;;;;5021195;28;20591;-81
2021/08/08 04:09:48;;;;;;;3.90;1.10;;;18.90;99.90;;;;;;5037094;28;20188;-80
2021/08/08 04:12:13;;;;;;;4.63;0.90;;;18.90;99.90;;;;;;5020655;28;20964;-80
2021/08/08 04:14:41;;;;;;;4.10;0.90;;;18.80;99.90;;;;;;5036934;28;20176;-81
2021/08/08 04:17:07;;;;;;;2.33;0.80;;;18.80;99.90;;;;;;5055157;28;20205;-80
2021/08/08 04:19:32;;;;;;;2.40;0.90;;;18.80;99.90;;;;;;5054657;28;20609;-80
2021/08/08 04:21:58;;;;;;;4.50;1.03;;;18.80;99.90;;;;;;5021160;28;20252;-80
2021/08/08 04:24:24;;;;;;;4.40;1.03;;;18.80;99.90;;;;;;5019949;28;21154;-81
2021/08/08 04:26:50;;;;;;;4.57;1.20;;;18.80;99.90;;;;;;5022238;28;20579;-81
2021/08/08 04:29:17;;;;;;;5.13;0.97;;;18.90;99.90;;;;;;5035988;28;20192;-82
2021/08/08 04:31:43;;;;;;;2.10;1.10;;;18.90;99.90;;;;;;5019705;28;21135;-82
2021/08/08 04:34:10;;;;;;;2.80;0.80;;;18.90;99.90;;;;;;5056001;28;20578;-82
2021/08/08 04:36:35;;;;;;;3.27;1.20;;;18.90;99.90;;;;;;5037239;28;20571;-82
2021/08/08 04:39:01;;;;;;;3.23;1.20;;;18.90;99.90;;;;;;5036395;28;20594;-82
2021/08/08 04:41:28;;;;;;;3.90;1.70;;;18.90;99.90;;;;;;5019769;28;20632;-82
2021/08/08 04:43:53;;;;;;;4.90;1.13;;;19.00;99.90;;;;;;5019240;28;20563;-82
2021/08/08 04:46:19;;;;;;;2.83;1.10;;;19.00;99.90;;;;;;5035670;28;20161;-81
2021/08/08 04:48:45;;;;;;;2.90;1.00;;;19.00;99.90;;;;;;5003059;28;21158;-81
2021/08/08 04:51:14;;;;;;;2.93;0.90;;;19.00;99.90;;;;;;5003212;28;20242;-81
2021/08/08 04:54:11;;;;;;;4.83;1.63;;;19.10;99.90;;;;;;5004104;28;20281;-80
2021/08/08 04:57:22;;;;;;;2.53;1.30;;;19.10;99.90;;;;;;5053831;28;20671;-81
2021/08/08 05:04:46;;;;;;;3.10;0.80;;;19.20;99.90;;;;;;5049870;28;20617;-81
2021/08/08 05:08:27;;;;;;;3.37;1.00;;;19.30;99.90;;;;;;5019770;28;20599;-81
2021/08/08 05:11:54;;;;;;;2.73;0.90;;;19.30;99.90;;;;;;5010947;28;20652;-81
2021/08/08 05:14:59;;;;;;;2.93;0.97;;;19.40;99.90;;;;;;5036317;28;21118;-81
2021/08/08 05:17:45;;;;;;;3.60;1.00;;;19.40;99.90;;;;;;5018259;28;20639;-81
2021/08/08 05:21:06;;;;;;;3.77;0.90;;;19.50;99.90;;;;;;5016416;28;20602;-81
2021/08/08 05:23:33;;;;;;;3.47;0.97;;;19.60;99.90;;;;;;5035777;28;20572;-81
2021/08/08 05:25:59;;;;;;;3.10;1.00;;;19.70;99.90;;;;;;5018176;28;20572;-81
2021/08/08 05:28:26;;;;;;;3.23;1.23;;;19.70;99.90;;;;;;5019116;28;20706;-81
2021/08/08 05:30:52;;;;;;;3.20;0.90;;;19.70;99.90;;;;;;5035709;28;20567;-81
2021/08/08 05:33:18;;;;;;;4.60;1.20;;;19.70;99.90;;;;;;5035489;28;20575;-81
2021/08/08 05:35:44;;;;;;;2.20;1.10;;;19.70;99.90;;;;;;5018225;28;20788;-80
2021/08/08 05:38:10;;;;;;;3.07;0.87;;;19.80;99.90;;;;;;5037387;28;20655;-80
2021/08/08 05:40:36;;;;;;;2.53;0.97;;;19.80;99.90;;;;;;5039644;28;20651;-81
2021/08/08 05:43:02;;;;;;;2.37;1.20;;;19.90;99.90;;;;;;5053213;28;20564;-81
2021/08/08 05:45:28;;;;;;;3.53;1.53;;;19.90;99.90;;;;;;5018540;28;20177;-81
2021/08/08 05:47:55;;;;;;;7.83;1.10;;;19.90;99.90;;;;;;5018688;28;20568;-81
2021/08/08 05:50:25;;;;;;;3.10;0.80;;;19.90;99.90;;;;;;5019344;28;20271;-81
2021/08/08 05:52:52;;;;;;;6.67;1.20;;;20.00;99.90;;;;;;5018970;28;20650;-81
2021/08/08 05:55:19;;;;;;;2.77;0.90;;;20.10;99.90;;;;;;5002351;28;20579;-81
2021/08/08 05:57:45;;;;;;;2.13;0.90;;;20.10;99.90;;;;;;5033528;28;20630;-81
2021/08/08 06:00:13;;;;;;;3.20;0.90;;;20.20;99.90;;;;;;5035234;28;20596;-81
2021/08/08 06:02:42;;;;;;;2.57;0.80;;;20.30;99.90;;;;;;5052804;28;20599;-81
2021/08/08 06:05:09;;;;;;;2.90;0.90;;;20.40;99.90;;;;;;5018126;28;20582;-81
2021/08/08 06:07:36;;;;;;;2.57;0.80;;;20.50;99.90;;;;;;5034887;28;20613;-82
2021/08/08 06:10:03;;;;;;;3.53;1.00;;;20.60;99.90;;;;;;5035785;28;20607;-81
2021/08/08 06:12:29;;;;;;;2.03;0.90;;;20.70;99.90;;;;;;5019468;28;20576;-81
2021/08/08 06:14:55;;;;;;;2.33;0.80;;;20.80;99.90;;;;;;5019206;28;20944;-82
2021/08/08 06:17:21;;;;;;;1.97;0.80;;;21.00;99.90;;;;;;5036398;28;20685;-81
2021/08/08 06:19:47;;;;;;;2.63;0.90;;;21.30;99.90;;;;;;5018127;28;20603;-81
2021/08/08 06:22:14;;;;;;;2.80;1.00;;;21.70;99.90;;;;;;5036062;28;20672;-81
2021/08/08 06:24:41;;;;;;;4.87;0.80;;;22.00;99.90;;;;;;5036119;28;21488;-81
2021/08/08 06:27:08;;;;;;;1.80;0.70;;;22.20;99.90;;;;;;5035543;28;20575;-81
2021/08/08 06:29:36;;;;;;;4.10;0.90;;;22.40;99.90;;;;;;5034911;28;20626;-81
2021/08/08 06:32:04;;;;;;;3.57;1.10;;;22.50;99.90;;;;;;5034924;28;20575;-81
2021/08/08 06:34:30;;;;;;;3.00;1.13;;;22.50;99.90;;;;;;5033603;28;20564;-81
2021/08/08 06:36:56;;;;;;;1.90;0.73;;;22.60;99.90;;;;;;4999090;28;20577;-81
2021/08/08 06:39:21;;;;;;;3.80;1.00;;;22.70;99.90;;;;;;4999272;28;20222;-82
2021/08/08 06:41:47;;;;;;;5.13;0.80;;;22.80;99.90;;;;;;4997970;28;20692;-82
2021/08/08 06:44:16;;;;;;;2.70;0.90;;;22.80;99.90;;;;;;5013752;28;20192;-82
2021/08/08 06:46:42;;;;;;;1.87;0.83;;;22.80;99.90;;;;;;5013017;28;20572;-82
2021/08/08 06:49:08;;;;;;;2.77;0.90;;;22.80;99.90;;;;;;5013801;28;20592;-81
2021/08/08 06:51:34;;;;;;;2.77;0.97;;;22.80;99.90;;;;;;5013350;28;20580;-81
2021/08/08 06:54:00;;;;;;;3.27;1.13;;;22.80;99.90;;;;;;5015282;28;20561;-85
2021/08/08 06:56:26;;;;;;;4.30;0.70;;;22.70;99.90;;;;;;5031567;28;20586;-86
2021/08/08 06:58:52;;;;;;;4.33;0.90;;;22.60;99.90;;;;;;5014037;28;20652;-85
2021/08/08 07:01:18;;;;;;;3.07;1.10;;;22.60;99.90;;;;;;4997775;28;20173;-85
2021/08/08 07:03:44;;;;;;;2.23;0.80;;;22.50;99.90;;;;;;5014078;28;20165;-83
2021/08/08 07:06:09;;;;;;;3.90;1.10;;;22.40;99.90;;;;;;5030539;28;20173;-84
2021/08/08 07:08:35;;;;;;;1.73;0.73;;;22.40;99.90;;;;;;5013470;28;20185;-83
2021/08/08 07:11:02;;;;;;;3.50;0.80;;;22.30;99.90;;;;;;5014008;28;20568;-84
2021/08/08 07:13:28;;;;;;;2.17;0.80;;;22.20;99.90;;;;;;5014102;28;20982;-84
2021/08/08 07:15:54;;;;;;;1.93;0.90;;;22.20;99.90;;;;;;5013595;28;20169;-83
2021/08/08 07:18:20;;;;;;;3.00;0.90;;;22.20;99.90;;;;;;5014052;28;20627;-83
2021/08/08 07:20:46;;;;;;;4.50;1.00;;;22.30;99.90;;;;;;4997518;28;20177;-82
2021/08/08 07:23:11;;;;;;;2.23;0.70;;;22.30;99.90;;;;;;5013983;28;20588;-83
2021/08/08 07:25:37;;;;;;;3.20;0.70;;;22.30;99.90;;;;;;5013903;28;20166;-83
2021/08/08 07:28:03;;;;;;;2.93;0.90;;;22.40;99.90;;;;;;5013787;28;20637;-83
2021/08/08 07:30:29;;;;;;;2.13;0.70;;;22.40;99.90;;;;;;5015930;28;20169;-84
2021/08/08 07:32:56;;;;;;;4.77;0.90;;;22.40;99.90;;;;;;5013932;28;20239;-84
2021/08/08 07:35:22;;;;;;;2.17;0.90;;;22.50;99.90;;;;;;5013401;28;20573;-83
2021/08/08 07:37:48;;;;;;;4.17;1.10;;;22.80;99.90;;;;;;5013606;28;20670;-84
2021/08/08 07:40:15;;;;;;;2.77;0.80;;;23.50;99.90;;;;;;5016795;28;20596;-84
2021/08/08 07:42:47;;;;;;;2.20;0.77;;;24.50;99.90;;;;;;5001327;28;20568;-83
2021/08/08 07:45:14;;;;;;;1.77;0.90;;;25.40;99.90;;;;;;5014476;28;20963;-84
2021/08/08 07:47:40;;;;;;;3.23;1.20;;;26.10;99.90;;;;;;5017609;28;20603;-83
2021/08/08 07:50:06;;;;;;;2.50;0.90;;;26.60;99.90;;;;;;5017732;28;21025;-84
2021/08/08 07:52:32;;;;;;;4.67;1.00;;;26.90;99.50;;;;;;5017926;28;20169;-84
2021/08/08 07:54:58;;;;;;;2.00;0.83;;;27.10;98.30;;;;;;5017749;28;20606;-84
2021/08/08 07:57:24;;;;;;;2.60;0.90;;;27.30;97.70;;;;;;5017676;28;20683;-84
2021/08/08 07:59:50;;;;;;;2.73;0.90;;;27.80;97.60;;;;;;5035365;28;21077;-84
2021/08/08 08:02:16;;;;;;;3.87;1.10;;;28.30;97.50;;;;;;5001404;28;20162;-84
2021/08/08 08:04:43;;;;;;;4.07;1.00;;;29.00;96.90;;;;;;5000738;28;20645;-84
2021/08/08 08:07:09;;;;;;;3.60;0.90;;;29.50;95.40;;;;;;5018366;28;20676;-84
2021/08/08 08:09:35;;;;;;;4.13;1.17;;;29.70;94.20;;;;;;5017065;28;20600;-85
2021/08/08 08:12:01;;;;;;;2.80;1.20;;;30.00;93.10;;;;;;5017156;28;20970;-84
2021/08/08 08:14:27;;;;;;;4.13;1.00;;;30.40;92.50;;;;;;5014250;28;20188;-82
2021/08/08 08:16:52;;;;;;;2.37;0.90;;;30.90;91.90;;;;;;5010275;28;20643;-83
2021/08/08 08:19:18;;;;;;;3.07;0.90;;;31.40;91.00;;;;;;5029231;28;20199;-83
2021/08/08 08:21:44;;;;;;;3.40;1.00;;;31.80;88.80;;;;;;5015021;28;20175;-83
2021/08/08 08:24:10;;;;;;;1.50;0.60;;;32.10;85.90;;;;;;5028814;28;20162;-83
2021/08/08 08:26:36;;;;;;;3.67;0.90;;;32.50;83.90;;;;;;5034795;28;20569;-84
2021/08/08 08:29:02;;;;;;;1.97;0.87;;;32.70;81.10;;;;;;5016710;28;20663;-83
2021/08/08 08:31:28;;;;;;;2.43;0.90;;;33.10;80.20;;;;;;5000382;28;20184;-85
2021/08/08 08:33:54;;;;;;;1.90;0.80;;;33.50;77.70;;;;;;5016864;28;20255;-85
2021/08/08 08:36:19;;;;;;;2.30;0.70;;;33.80;75.80;;;;;;5016855;28;20203;-85
2021/08/08 08:38:45;;;;;;;1.50;0.60;;;34.10;73.50;;;;;;5017195;28;20205;-85
2021/08/08 08:41:15;;;;;;;2.57;0.80;;;34.40;71.80;;;;;;5017217;28;20170;-85
2021/08/08 08:43:43;;;;;;;3.00;1.00;;;34.80;69.50;;;;;;5035825;28;20546;-84
2021/08/08 08:46:10;;;;;;;3.57;0.90;;;35.20;67.90;;;;;;5019312;28;20560;-84
2021/08/08 08:48:37;;;;;;;3.10;0.80;;;35.40;65.50;;;;;;5016792;28;20951;-85
2021/08/08 08:51:05;;;;;;;1.87;0.70;;;35.40;62.50;;;;;;5016604;28;20584;-85
2021/08/08 08:53:31;;;;;;;4.03;0.80;;;35.10;59.60;;;;;;5016650;28;20619;-85
2021/08/08 08:56:01;;;;;;;1.93;0.80;;;34.70;59.00;;;;;;5016159;28;20587;-85
2021/08/08 08:58:31;;;;;;;3.37;0.70;;;34.50;59.00;;;;;;5016519;28;20658;-84
2021/08/08 09:00:56;;;;;;;2.63;0.80;;;34.60;59.20;;;;;;5016331;28;20568;-85
2021/08/08 09:03:22;;;;;;;2.73;0.60;;;34.60;59.30;;;;;;5016353;28;20570;-84
2021/08/08 09:05:48;;;;;;;4.37;0.67;;;34.80;59.40;;;;;;5033878;28;20710;-87
2021/08/08 09:08:14;;;;;;;1.70;0.80;;;34.80;58.00;;;;;;5000593;28;20235;-86
2021/08/08 09:10:40;;;;;;;2.10;0.70;;;34.50;57.30;;;;;;5002975;28;20682;-87
2021/08/08 09:13:07;;;;;;;3.20;1.10;;;34.20;56.20;;;;;;5001285;28;20225;-85
2021/08/08 09:15:41;;;;;;;3.47;1.20;;;33.80;55.50;;;;;;5056763;28;20574;-88
2021/08/08 09:18:10;;;;;;;2.07;0.90;;;33.30;54.90;;;;;;5035526;28;20645;-85
2021/08/08 09:20:38;;;;;;;2.63;0.93;;;32.60;54.60;;;;;;5022386;28;20568;-85
2021/08/08 09:23:04;;;;;;;2.00;0.70;;;32.10;54.90;;;;;;5035509;28;20626;-84
2021/08/08 09:25:29;;;;;;;1.57;0.70;;;31.50;55.00;;;;;;5036546;28;20579;-85
2021/08/08 09:28:09;;;;;;;2.03;0.70;;;30.90;55.30;;;;;;5035773;28;20534;-86
2021/08/08 09:30:38;;;;;;;2.27;0.70;;;30.40;55.40;;;;;;5035899;28;20197;-85
2021/08/08 09:33:06;;;;;;;2.67;0.93;;;30.00;55.90;;;;;;5038348;28;20567;-84
2021/08/08 09:35:41;;;;;;;3.40;0.97;;;29.60;56.30;;;;;;5038627;28;20575;-84
2021/08/08 09:38:10;;;;;;;2.30;1.23;;;29.30;56.50;;;;;;5055016;28;20725;-85
2021/08/08 09:40:40;;;;;;;2.43;0.70;;;29.00;56.70;;;;;;5039500;28;20556;-86
2021/08/08 09:43:11;;;;;;;2.20;0.70;;;28.80;57.10;;;;;;5037138;28;20568;-85
2021/08/08 09:45:42;;;;;;;3.17;0.87;;;28.70;57.50;;;;;;5018695;28;20572;-86
2021/08/08 09:48:13;;;;;;;2.17;0.90;;;28.70;58.00;;;;;;5035319;28;20607;-84
2021/08/08 09:50:41;;;;;;;3.87;0.70;;;29.10;59.20;;;;;;5053405;28;20928;-87
2021/08/08 09:53:09;;;;;;;2.67;0.80;;;29.60;59.50;;;;;;5036045;28;20564;-86
2021/08/08 09:55:39;;;;;;;2.33;0.80;;;30.10;59.70;;;;;;4992967;28;20639;-83
2021/08/08 09:58:22;;;;;;;2.57;0.73;;;30.50;59.10;;;;;;4996535;28;20628;-82
2021/08/08 10:00:49;;;;;;;1.97;0.80;;;30.70;57.90;;;;;;4995532;28;20569;-81
2021/08/08 10:03:16;;;;;;;2.63;0.90;;;30.70;57.40;;;;;;4995027;28;21131;-82
2021/08/08 10:05:43;;;;;;;1.90;0.60;;;30.60;56.90;;;;;;5012788;28;20656;-81
2021/08/08 10:08:21;;;;;;;1.50;0.60;;;30.40;56.50;;;;;;4995667;28;20576;-82
2021/08/08 10:10:49;;;;;;;3.07;0.80;;;30.40;56.80;;;;;;4995674;28;20671;-82
2021/08/08 10:13:45;;;;;;;2.00;0.70;;;30.40;57.30;;;;;;5013082;28;20607;-82
2021/08/08 10:16:16;;;;;;;2.30;0.77;;;30.40;57.00;;;;;;5012641;28;20569;-82
2021/08/08 10:18:44;;;;;;;2.50;0.70;;;30.40;56.80;;;;;;5012804;28;20683;-82
2021/08/08 10:21:12;;;;;;;2.03;0.80;;;30.20;56.40;;;;;;5012770;28;20603;-82
2021/08/08 10:23:39;;;;;;;2.33;0.80;;;29.90;56.10;;;;;;5013360;28;20675;-82
2021/08/08 10:26:06;;;;;;;2.50;0.70;;;29.60;55.90;;;;;;5012747;28;20898;-81
2021/08/08 10:28:32;;;;;;;2.40;0.70;;;29.20;56.20;;;;;;5012937;28;20988;-81
2021/08/08 10:31:00;;;;;;;1.70;0.67;;;29.10;57.10;;;;;;5012062;28;20676;-82
2021/08/08 10:33:26;;;;;;;2.43;0.73;;;29.10;57.20;;;;;;5013942;28;20571;-81
2021/08/08 10:35:52;;;;;;;1.67;0.90;;;29.00;57.60;;;;;;4994814;28;20577;-81
2021/08/08 10:38:18;;;;;;;2.03;0.90;;;29.00;57.90;;;;;;5012409;28;20198;-82
2021/08/08 10:40:46;;;;;;;3.60;1.00;;;29.00;57.70;;;;;;5012532;28;20617;-81
2021/08/08 10:43:31;;;;;;;2.07;0.77;;;28.90;57.50;;;;;;4995030;28;20590;-82
2021/08/08 10:46:05;;;;;;;1.60;0.60;;;28.80;57.00;;;;;;5011827;28;20569;-81
2021/08/08 10:48:39;;;;;;;3.77;1.10;;;28.60;57.10;;;;;;4995118;28;20675;-82
2021/08/08 10:51:25;;;;;;;2.10;0.80;;;28.40;56.90;;;;;;4994680;28;21276;-81
2021/08/08 10:54:01;;;;;;;1.70;0.70;;;28.20;57.20;;;;;;5012646;28;20573;-81
2021/08/08 10:56:48;;;;;;;1.53;0.60;;;27.90;57.00;;;;;;5043123;28;20591;-81
2021/08/08 10:59:20;;;;;;;2.00;0.70;;;27.60;57.30;;;;;;5039138;28;20623;-83
2021/08/08 11:01:47;;;;;;;2.73;0.93;;;27.40;57.30;;;;;;5047748;28;20595;-82
2021/08/08 11:04:15;;;;;;;4.90;3.40;;;27.10;57.60;;;;;;5017427;28;20591;-82
2021/08/08 11:06:42;;;;;;;2.80;2.20;;;27.00;58.10;;;;;;5055696;28;20567;-82
2021/08/08 11:09:07;;;;;;;2.17;1.10;;;26.80;58.60;;;;;;5061993;28;21265;-81
2021/08/08 11:11:36;;;;;;;2.93;1.43;;;26.80;59.00;;;;;;5044366;28;20599;-81
2021/08/08 11:14:08;;;;;;;2.27;0.70;;;26.70;59.10;;;;;;5024234;28;20226;-81
2021/08/08 11:16:34;;;;;;;2.60;0.73;;;26.70;59.50;;;;;;5042256;28;20583;-82
2021/08/08 11:19:00;;;;;;;1.60;0.70;;;26.80;59.60;;;;;;5041111;28;21060;-82
2021/08/08 11:21:26;;;;;;;2.60;0.80;;;26.90;59.70;;;;;;5066253;28;20185;-81
2021/08/08 11:23:57;;;;;;;3.00;0.90;;;26.90;59.70;;;;;;5056388;28;20967;-82
2021/08/08 11:26:24;;;;;;;1.63;0.60;;;27.00;59.90;;;;;;5022019;28;20220;-84
2021/08/08 11:28:51;;;;;;;1.70;0.70;;;27.10;59.90;;;;;;5034767;28;20624;-84
2021/08/08 11:31:26;;;;;;;2.23;0.80;;;27.20;60.10;;;;;;5051906;28;20614;-84
2021/08/08 11:33:57;;;;;;;3.77;1.07;;;27.30;59.90;;;;;;5038918;23;20684;-76
2021/08/08 11:36:30;;;;;;;1.50;0.60;;;27.40;59.90;;;;;;5026532;28;20608;-76
2021/08/08 11:38:57;;;;;;;2.17;0.80;;;27.50;59.70;;;;;;4978982;28;20656;-76
2021/08/08 11:41:24;;;;;;;1.50;0.67;;;27.50;59.90;;;;;;4992269;28;20651;-76
2021/08/08 11:44:01;;;;;;;2.17;0.93;;;27.50;60.10;;;;;;5009406;28;20707;-76
2021/08/08 11:46:27;;;;;;;2.03;0.70;;;27.60;59.70;;;;;;5013239;28;20683;-76
2021/08/08 11:48:53;;;;;;;2.57;0.93;;;27.60;59.70;;;;;;5013589;28;20688;-76
2021/08/08 11:51:20;;;;;;;1.57;0.60;;;27.50;59.30;;;;;;5033016;28;20228;-76
2021/08/08 11:53:56;;;;;;;2.60;0.77;;;27.50;60.00;;;;;;5013289;28;20284;-76
2021/08/08 11:56:30;;;;;;;2.80;0.73;;;27.50;60.60;;;;;;4997146;28;20591;-76
2021/08/08 11:58:57;;;;;;;2.10;0.70;;;27.70;61.40;;;;;;5013590;28;20704;-76
2021/08/08 12:01:25;;;;;;;3.00;0.70;;;28.00;62.00;;;;;;5013144;28;20557;-76
2021/08/08 12:03:51;;;;;;;1.90;0.60;;;28.20;61.40;;;;;;5021776;28;20612;-76
2021/08/08 12:06:24;;;;;;;2.63;0.83;;;28.40;60.70;;;;;;5015158;28;20927;-78
2021/08/08 12:08:51;;;;;;;2.10;0.73;;;28.50;59.80;;;;;;4998196;28;20589;-77
2021/08/08 12:11:20;;;;;;;2.40;0.90;;;28.70;60.30;;;;;;5013162;28;20564;-78
2021/08/08 12:13:59;;;;;;;1.50;0.63;;;28.90;59.90;;;;;;5029640;28;20604;-77
2021/08/08 12:16:34;;;;;;;3.90;0.67;;;28.90;58.80;;;;;;4996633;28;20560;-76
2021/08/08 12:19:00;;;;;;;1.20;0.60;;;28.80;58.30;;;;;;4996872;28;20632;-76
2021/08/08 12:21:26;;;;;;;1.43;0.57;;;28.90;58.30;;;;;;5013196;28;20614;-76
2021/08/08 12:24:03;;;;;;;4.30;0.60;;;28.80;58.00;;;;;;5013364;28;20607;-76
2021/08/08 12:26:28;;;;;;;2.10;0.60;;;28.70;57.60;;;;;;5015751;28;20582;-76
2021/08/08 12:29:05;;;;;;;2.27;0.70;;;28.50;57.40;;;;;;5016924;28;20572;-76
2021/08/08 12:31:37;;;;;;;2.13;0.60;;;28.30;57.10;;;;;;5016883;28;20180;-76
2021/08/08 12:34:03;;;;;;;2.30;0.80;;;28.10;57.00;;;;;;5015526;28;20623;-76
2021/08/08 12:36:40;;;;;;;3.27;0.90;;;27.90;57.20;;;;;;5015323;28;20582;-76
2021/08/08 12:39:07;;;;;;;2.70;0.90;;;27.70;57.60;;;;;;5033090;28;20689;-76
2021/08/08 12:41:38;;;;;;;5.77;2.67;;;27.50;57.50;;;;;;5038214;28;20561;-76
2021/08/08 12:44:04;;;;;;;2.40;1.60;;;27.30;58.00;;;;;;4982595;28;20643;-76
2021/08/08 12:46:40;;;;;;;4.80;1.93;;;27.20;58.80;;;;;;5033144;28;20575;-76
2021/08/08 12:49:09;;;;;;;3.50;1.90;;;27.10;60.20;;;;;;5014746;28;20579;-76
2021/08/08 12:51:36;;;;;;;3.30;1.20;;;27.10;61.20;;;;;;5023261;28;20658;-76
2021/08/08 12:54:02;;;;;;;3.60;1.97;;;27.20;62.50;;;;;;5014492;28;20647;-76
2021/08/08 12:56:28;;;;;;;3.30;2.80;;;27.40;62.60;;;;;;5032457;28;20675;-76
2021/08/08 12:58:57;;;;;;;5.50;1.30;;;27.40;61.80;;;;;;5011331;28;20808;-76
2021/08/08 13:01:32;;;;;;;3.70;0.90;;;27.40;60.90;;;;;;5014601;28;20169;-77